createdAt,value
2022-12-19T00:00:15.835Z,17.67
2022-12-19T00:02:43.656Z,16.40
2022-12-19T00:05:13.303Z,16.90
2022-12-19T00:07:40.847Z,17.40
2022-12-19T00:10:09.014Z,16.20
2022-12-19T00:12:36.555Z,16.70
2022-12-19T00:15:05.642Z,16.20
2022-12-19T00:17:33.353Z,16.50
2022-12-19T00:20:02.793Z,16.70
2022-12-19T00:22:30.276Z,15.10
2022-12-19T00:24:57.695Z,17.47
2022-12-19T00:27:25.235Z,16.77
2022-12-19T00:29:52.837Z,17.80
2022-12-19T00:32:21.642Z,18.20
2022-12-19T00:34:49.070Z,16.70
2022-12-19T00:37:16.544Z,17.13
2022-12-19T00:39:43.996Z,17.30
2022-12-19T00:42:11.541Z,17.13
2022-12-19T00:44:38.930Z,16.37
2022-12-19T00:47:06.362Z,16.70
2022-12-19T00:49:35.272Z,16.23
2022-12-19T00:52:03.498Z,16.90
2022-12-19T00:54:31.047Z,16.80
2022-12-19T00:56:58.661Z,16.33
2022-12-19T00:59:26.834Z,16.97
2022-12-19T01:01:54.743Z,16.40
2022-12-19T01:04:30.801Z,18.30
2022-12-19T01:07:02.336Z,16.60
2022-12-19T01:09:30.957Z,16.80
2022-12-19T01:12:15.786Z,17.37
2022-12-19T01:14:43.589Z,17.10
2022-12-19T01:17:11.108Z,17.30
2022-12-19T01:19:43.608Z,16.53
2022-12-19T01:22:13.324Z,16.00
2022-12-19T01:24:40.856Z,17.77
2022-12-19T01:27:08.560Z,16.90
2022-12-19T01:29:36.699Z,17.33
2022-12-19T01:32:13.046Z,17.90
2022-12-19T01:34:40.461Z,17.53
2022-12-19T01:37:07.897Z,15.50
2022-12-19T01:39:36.734Z,18.13
2022-12-19T01:42:04.594Z,17.33
2022-12-19T01:44:32.772Z,16.50
2022-12-19T01:47:02.224Z,17.17
2022-12-19T01:49:31.396Z,17.57
2022-12-19T01:52:01.056Z,17.73
2022-12-19T01:54:38.359Z,16.77
2022-12-19T01:57:09.865Z,16.30
2022-12-19T01:59:39.537Z,17.47
2022-12-19T02:02:10.487Z,17.13
2022-12-19T02:04:38.085Z,16.47
2022-12-19T02:07:10.450Z,17.27
2022-12-19T02:09:44.631Z,16.30
2022-12-19T02:12:14.195Z,18.23
2022-12-19T02:14:41.917Z,16.33
2022-12-19T02:17:15.698Z,17.80
2022-12-19T02:20:06.871Z,17.07
2022-12-19T02:22:41.503Z,17.60
2022-12-19T02:25:29.256Z,15.80
2022-12-19T02:28:13.455Z,16.63
2022-12-19T02:30:50.358Z,15.90
2022-12-19T02:33:20.652Z,15.10
2022-12-19T02:35:55.400Z,17.27
2022-12-19T02:38:28.004Z,16.90
2022-12-19T02:41:00.983Z,16.47
2022-12-19T02:43:29.625Z,17.00
2022-12-19T02:45:58.663Z,16.53
2022-12-19T02:48:26.576Z,16.90
2022-12-19T02:50:54.194Z,16.70
2022-12-19T02:53:23.537Z,16.37
2022-12-19T02:55:58.824Z,17.40
2022-12-19T02:58:35.875Z,16.57
2022-12-19T03:01:09.922Z,16.00
2022-12-19T03:03:42.346Z,17.70
2022-12-19T03:06:13.722Z,16.00
2022-12-19T03:08:49.917Z,16.40
2022-12-19T03:11:17.466Z,15.50
2022-12-19T03:13:47.095Z,16.20
2022-12-19T03:16:16.152Z,17.23
2022-12-19T03:18:44.007Z,16.50
2022-12-19T03:21:14.201Z,16.97
2022-12-19T03:23:41.979Z,15.90
2022-12-19T03:26:11.181Z,15.77
2022-12-19T03:28:42.843Z,15.60
2022-12-19T03:31:11.494Z,16.90
2022-12-19T03:33:41.808Z,13.63
2022-12-19T03:36:12.800Z,16.10
2022-12-19T03:38:41.473Z,14.80
2022-12-19T03:41:11.014Z,18.20
2022-12-19T03:43:37.784Z,18.67
2022-12-19T03:46:07.777Z,17.37
2022-12-19T03:48:39.379Z,17.10
2022-12-19T03:51:11.491Z,16.40
2022-12-19T03:53:42.677Z,15.20
2022-12-19T03:56:14.124Z,17.00
2022-12-19T03:58:43.475Z,17.50
2022-12-19T04:01:10.954Z,17.90
2022-12-19T04:03:38.477Z,16.07
2022-12-19T04:06:06.677Z,16.83
2022-12-19T04:08:36.595Z,17.10
2022-12-19T04:11:06.066Z,16.63
2022-12-19T04:13:35.738Z,18.33
2022-12-19T04:16:07.823Z,17.03
2022-12-19T04:18:37.051Z,18.27
2022-12-19T04:21:06.593Z,17.43
2022-12-19T04:23:38.217Z,17.70
2022-12-19T04:26:06.073Z,17.63
2022-12-19T04:28:35.843Z,17.17
2022-12-19T04:31:03.867Z,17.87
2022-12-19T04:33:31.415Z,17.30
2022-12-19T04:35:58.910Z,17.60
2022-12-19T04:38:27.483Z,17.77
2022-12-19T04:40:56.674Z,17.00
2022-12-19T04:43:24.308Z,17.50
2022-12-19T04:45:57.094Z,17.13
2022-12-19T04:48:25.077Z,18.47
2022-12-19T04:50:52.631Z,18.20
2022-12-19T04:53:20.129Z,17.57
2022-12-19T04:55:47.552Z,16.33
2022-12-19T04:58:21.439Z,18.40
2022-12-19T05:00:49.428Z,17.57
2022-12-19T05:03:16.916Z,17.40
2022-12-19T05:05:44.441Z,17.87
2022-12-19T05:08:11.909Z,16.87
2022-12-19T05:10:39.459Z,18.97
2022-12-19T05:13:07.603Z,17.60
2022-12-19T05:15:36.403Z,18.40
2022-12-19T05:18:04.055Z,18.03
2022-12-19T05:20:31.463Z,18.03
2022-12-19T05:23:01.891Z,19.60
2022-12-19T05:25:37.688Z,18.80
2022-12-19T05:28:05.251Z,19.83
2022-12-19T05:30:32.632Z,20.13
2022-12-19T05:33:01.527Z,17.33
2022-12-19T05:35:28.947Z,19.13
2022-12-19T05:37:56.334Z,19.43
2022-12-19T05:40:23.718Z,19.60
2022-12-19T05:42:51.088Z,19.10
2022-12-19T05:45:18.724Z,19.07
2022-12-19T05:47:46.654Z,18.63
2022-12-19T05:50:15.607Z,19.83
2022-12-19T05:52:43.170Z,19.50
2022-12-19T05:55:11.008Z,19.00
2022-12-19T05:57:38.585Z,18.93
2022-12-19T06:00:09.357Z,18.43
2022-12-19T06:02:36.996Z,18.80
2022-12-19T06:05:04.738Z,18.60
2022-12-19T06:07:33.449Z,19.77
2022-12-19T06:10:00.932Z,18.90
2022-12-19T06:12:28.640Z,19.40
2022-12-19T06:14:56.106Z,19.53
2022-12-19T06:17:23.675Z,20.50
2022-12-19T06:19:51.084Z,18.30
2022-12-19T06:22:18.446Z,18.13
2022-12-19T06:24:47.234Z,19.87
2022-12-19T06:27:14.720Z,18.90
2022-12-19T06:29:42.194Z,19.17
2022-12-19T06:32:09.640Z,19.90
2022-12-19T06:35:03.233Z,21.30
2022-12-19T06:37:25.560Z,19.63
2022-12-19T06:39:54.370Z,18.43
2022-12-19T06:42:23.557Z,19.20
2022-12-19T06:44:51.193Z,16.40
2022-12-19T06:47:18.955Z,18.70
2022-12-19T06:49:50.118Z,18.83
2022-12-19T06:52:18.031Z,18.57
2022-12-19T06:54:45.453Z,18.40
2022-12-19T06:57:14.302Z,18.63
2022-12-19T06:59:42.212Z,18.90
2022-12-19T07:02:17.097Z,18.00
2022-12-19T07:04:49.723Z,18.73
2022-12-19T07:07:17.553Z,19.43
2022-12-19T07:09:45.225Z,21.43
2022-12-19T07:12:14.021Z,19.03
2022-12-19T07:14:41.702Z,19.70
2022-12-19T07:17:09.225Z,19.83
2022-12-19T07:19:36.768Z,19.27
2022-12-19T07:22:04.908Z,19.47
2022-12-19T07:24:32.817Z,19.83
2022-12-19T07:27:00.312Z,18.50
2022-12-19T07:29:29.111Z,20.80
2022-12-19T07:31:56.767Z,21.27
2022-12-19T07:34:24.175Z,19.50
2022-12-19T07:36:54.346Z,18.97
2022-12-19T07:39:22.803Z,19.40
2022-12-19T07:41:50.223Z,19.37
2022-12-19T07:44:17.685Z,19.53
2022-12-19T07:46:46.729Z,19.30
2022-12-19T07:49:17.046Z,19.70
2022-12-19T07:51:48.613Z,19.50
2022-12-19T07:54:16.032Z,19.83
2022-12-19T07:56:43.488Z,17.70
2022-12-19T07:59:12.786Z,21.03
2022-12-19T08:01:40.432Z,19.13
2022-12-19T08:04:09.474Z,19.00
2022-12-19T08:06:41.054Z,20.57
2022-12-19T08:09:09.022Z,20.70
2022-12-19T08:11:36.454Z,20.20
2022-12-19T08:14:04.219Z,20.23
2022-12-19T08:16:37.370Z,17.90
2022-12-19T08:19:19.200Z,17.90
2022-12-19T08:21:48.948Z,18.80
2022-12-19T08:24:17.186Z,18.93
2022-12-19T08:26:47.722Z,18.87
2022-12-19T08:29:15.352Z,18.60
2022-12-19T08:31:42.955Z,19.70
2022-12-19T08:34:10.464Z,20.20
2022-12-19T08:36:39.486Z,20.00
2022-12-19T08:39:07.120Z,19.70
2022-12-19T08:41:34.756Z,21.47
2022-12-19T08:44:02.248Z,20.20
2022-12-19T08:46:29.992Z,18.17
2022-12-19T08:48:58.149Z,21.20
2022-12-19T08:51:25.945Z,18.80
2022-12-19T08:53:54.783Z,19.40
2022-12-19T08:56:22.988Z,19.40
2022-12-19T08:58:52.023Z,19.37
2022-12-19T09:01:20.985Z,19.53
2022-12-19T09:04:29.043Z,19.00
2022-12-19T09:06:36.030Z,20.27
2022-12-19T09:09:05.299Z,20.43
2022-12-19T09:11:32.855Z,20.40
2022-12-19T09:14:05.017Z,23.07
2022-12-19T09:16:32.725Z,20.60
2022-12-19T09:19:00.444Z,19.70
2022-12-19T09:21:29.358Z,21.90
2022-12-19T09:24:03.460Z,21.27
2022-12-19T09:26:37.225Z,19.90
2022-12-19T09:29:08.205Z,19.73
2022-12-19T09:31:47.473Z,20.73
2022-12-19T09:34:14.976Z,20.93
2022-12-19T09:36:42.519Z,19.30
2022-12-19T09:39:11.053Z,19.23
2022-12-19T09:41:57.355Z,19.90
2022-12-19T09:44:30.348Z,18.87
2022-12-19T09:46:59.425Z,20.67
2022-12-19T09:49:28.180Z,19.03
2022-12-19T09:51:59.925Z,19.20
2022-12-19T09:54:33.190Z,19.70
2022-12-19T09:57:02.310Z,19.70
2022-12-19T09:59:41.143Z,19.80
2022-12-19T10:02:21.396Z,19.83
2022-12-19T10:04:52.147Z,17.80
2022-12-19T10:07:53.009Z,20.17
2022-12-19T10:12:35.095Z,19.27
2022-12-19T10:13:11.762Z,19.50
2022-12-19T10:15:48.273Z,20.40
2022-12-19T10:18:34.065Z,18.90
2022-12-19T10:21:05.682Z,19.47
2022-12-19T10:23:50.419Z,20.40
2022-12-19T10:26:20.194Z,18.40
2022-12-19T10:28:56.547Z,19.70
2022-12-19T10:31:31.264Z,19.47
2022-12-19T10:34:01.489Z,20.83
2022-12-19T10:37:04.456Z,19.40
2022-12-19T10:39:27.291Z,19.30
2022-12-19T10:41:56.856Z,20.37
2022-12-19T10:44:26.781Z,23.77
2022-12-19T10:46:55.589Z,22.10
2022-12-19T10:49:24.031Z,23.83
2022-12-19T10:51:58.770Z,24.00
2022-12-19T10:54:33.358Z,26.87
2022-12-19T10:57:18.565Z,25.80
2022-12-19T10:59:54.776Z,20.53
2022-12-19T11:02:35.765Z,19.73
2022-12-19T11:05:04.705Z,18.50
2022-12-19T11:07:32.257Z,19.67
2022-12-19T11:10:33.937Z,19.77
2022-12-19T11:17:17.321Z,18.90
2022-12-19T11:21:38.725Z,21.30
2022-12-19T11:29:17.816Z,20.70
2022-12-19T11:29:31.325Z,20.73
2022-12-19T11:30:36.554Z,20.30
2022-12-19T11:30:41.453Z,20.20
2022-12-19T11:33:13.701Z,22.57
2022-12-19T11:35:50.979Z,21.40
2022-12-19T11:38:19.985Z,21.50
2022-12-19T11:40:49.972Z,19.77
2022-12-19T11:46:13.867Z,18.10
2022-12-19T11:48:46.973Z,19.33
2022-12-19T11:51:19.631Z,19.30
2022-12-19T11:53:50.570Z,17.77
2022-12-19T11:56:19.815Z,18.83
2022-12-19T11:58:49.456Z,17.80
2022-12-19T12:01:21.501Z,17.90
2022-12-19T12:04:02.785Z,17.43
2022-12-19T12:06:33.871Z,16.97
2022-12-19T12:12:09.541Z,17.80
2022-12-19T12:22:44.890Z,17.00
2022-12-19T12:25:01.507Z,17.20
2022-12-19T12:29:43.034Z,16.80
2022-12-19T12:31:17.767Z,16.80
2022-12-19T12:31:44.254Z,16.17
2022-12-19T12:31:46.588Z,15.57
2022-12-19T12:31:57.749Z,17.77
2022-12-19T12:35:46.388Z,17.87
2022-12-19T12:36:56.009Z,16.47
2022-12-19T12:38:18.851Z,16.97
2022-12-19T12:40:59.530Z,17.00
2022-12-19T12:43:40.343Z,16.30
2022-12-19T12:46:12.187Z,16.90
2022-12-19T12:48:43.714Z,17.10
2022-12-19T12:51:11.616Z,15.50
2022-12-19T12:53:40.744Z,18.70
2022-12-19T12:56:11.723Z,19.30
2022-12-19T12:59:03.872Z,15.37
2022-12-19T13:01:34.902Z,17.47
2022-12-19T13:04:04.629Z,17.40
2022-12-19T13:06:33.739Z,18.37
2022-12-19T13:09:03.860Z,17.50
2022-12-19T13:11:57.146Z,17.37
2022-12-19T13:14:48.339Z,16.47
2022-12-19T13:17:19.650Z,15.07
2022-12-19T13:19:54.196Z,15.03
2022-12-19T13:22:23.303Z,14.90
2022-12-19T13:24:51.861Z,14.70
2022-12-19T13:27:49.237Z,15.07
2022-12-19T13:30:21.504Z,15.93
2022-12-19T13:33:12.818Z,14.53
2022-12-19T13:39:47.983Z,14.20
2022-12-19T13:39:51.773Z,15.03
2022-12-19T13:41:44.782Z,14.43
2022-12-19T13:44:12.362Z,13.80
2022-12-19T13:46:42.479Z,13.50
2022-12-19T13:49:14.341Z,12.80
2022-12-19T13:51:43.545Z,13.93
2022-12-19T13:54:23.967Z,13.00
2022-12-19T13:56:51.955Z,13.50
2022-12-19T13:59:20.419Z,13.20
2022-12-19T14:01:49.487Z,13.40
2022-12-19T14:04:26.178Z,12.97
2022-12-19T14:06:56.860Z,13.10
2022-12-19T14:11:32.539Z,13.00
2022-12-19T14:13:44.871Z,13.53
2022-12-19T14:15:31.776Z,12.70
2022-12-19T14:18:43.011Z,12.50
2022-12-19T14:22:08.865Z,12.40
2022-12-19T14:23:43.559Z,10.77
2022-12-19T14:28:18.525Z,12.23
2022-12-19T14:29:02.611Z,12.13
2022-12-19T14:31:30.447Z,11.40
2022-12-19T14:34:27.144Z,11.40
2022-12-19T14:36:49.091Z,12.33
2022-12-19T14:39:22.761Z,11.03
2022-12-19T14:42:19.290Z,10.97
2022-12-19T14:52:27.908Z,10.70
2022-12-19T14:52:35.007Z,11.60
2022-12-19T14:54:13.739Z,10.30
2022-12-19T14:54:23.893Z,11.23
2022-12-19T14:58:57.302Z,10.73
2022-12-19T15:01:26.190Z,11.87
2022-12-19T15:04:17.180Z,11.07
2022-12-19T15:07:09.126Z,11.37
2022-12-19T15:11:08.037Z,11.50
2022-12-19T15:14:52.740Z,10.73
2022-12-19T15:15:38.669Z,10.57
2022-12-19T15:18:17.175Z,11.57
2022-12-19T15:20:44.570Z,10.90
2022-12-19T15:23:19.819Z,12.10
2022-12-19T15:26:06.632Z,9.90
2022-12-19T15:28:39.639Z,10.20
2022-12-19T15:31:11.095Z,11.07
2022-12-19T15:33:59.728Z,11.47
2022-12-19T15:36:26.086Z,11.13
2022-12-19T15:38:54.895Z,11.50
2022-12-19T15:41:23.540Z,10.00
2022-12-19T15:44:07.289Z,12.17
2022-12-19T15:46:35.635Z,10.57
2022-12-19T15:49:03.203Z,10.00
2022-12-19T15:51:30.649Z,10.30
2022-12-19T15:54:15.665Z,9.90
2022-12-19T15:56:49.808Z,11.20
2022-12-19T15:59:23.272Z,10.00
2022-12-19T16:01:51.838Z,9.03
2022-12-19T16:04:19.697Z,10.37
2022-12-19T16:06:47.224Z,9.90
2022-12-19T16:09:20.984Z,10.13
2022-12-19T16:11:48.676Z,9.53
2022-12-19T16:14:16.376Z,10.40
2022-12-19T16:16:44.262Z,9.20
2022-12-19T16:19:23.078Z,8.50
2022-12-19T16:21:50.455Z,9.00
2022-12-19T16:24:17.891Z,9.53
2022-12-19T16:26:49.586Z,9.30
2022-12-19T16:29:19.177Z,9.23
2022-12-19T16:31:46.692Z,9.83
2022-12-19T16:34:15.929Z,9.30
2022-12-19T16:36:43.523Z,10.43
2022-12-19T16:39:11.298Z,10.13
2022-12-19T16:41:42.591Z,9.37
2022-12-19T16:44:19.377Z,11.23
2022-12-19T16:46:51.124Z,10.37
2022-12-19T16:49:20.106Z,9.60
2022-12-19T16:51:48.368Z,9.67
2022-12-19T16:54:16.764Z,9.33
2022-12-19T16:56:44.970Z,9.47
2022-12-19T16:59:15.559Z,8.63
2022-12-19T17:01:45.445Z,9.00
2022-12-19T17:04:14.439Z,9.40
2022-12-19T17:06:42.556Z,10.07
2022-12-19T17:09:13.873Z,9.63
2022-12-19T17:11:41.729Z,10.37
2022-12-19T17:14:13.514Z,10.60
2022-12-19T17:16:40.898Z,11.37
2022-12-19T17:19:11.878Z,14.50
2022-12-19T17:21:39.359Z,20.70
2022-12-19T17:24:07.005Z,16.30
2022-12-19T17:26:35.374Z,12.93
2022-12-19T17:29:02.814Z,10.83
2022-12-19T17:31:37.905Z,10.67
2022-12-19T17:34:06.057Z,11.30
2022-12-19T17:36:37.804Z,11.57
2022-12-19T17:39:12.332Z,11.50
2022-12-19T17:41:39.819Z,10.53
2022-12-19T17:44:07.464Z,10.20
2022-12-19T17:46:37.294Z,11.40
2022-12-19T17:49:04.801Z,11.00
2022-12-19T17:51:32.277Z,10.57
2022-12-19T17:54:01.029Z,11.23
2022-12-19T17:56:29.636Z,11.40
2022-12-19T17:58:57.081Z,11.00
2022-12-19T18:01:25.527Z,10.00
2022-12-19T18:03:53.991Z,11.60
2022-12-19T18:06:21.556Z,12.73
2022-12-19T18:08:49.116Z,13.77
2022-12-19T18:11:20.013Z,11.20
2022-12-19T18:13:47.597Z,10.40
2022-12-19T18:16:16.131Z,9.93
2022-12-19T18:18:43.640Z,10.07
2022-12-19T18:21:14.220Z,9.80
2022-12-19T18:23:41.848Z,10.10
2022-12-19T18:26:10.340Z,10.60
2022-12-19T18:28:39.139Z,10.50
2022-12-19T18:31:11.702Z,11.30
2022-12-19T18:33:40.682Z,18.23
2022-12-19T18:36:09.060Z,10.83
2022-12-19T18:38:36.555Z,9.90
2022-12-19T18:41:04.159Z,8.67
2022-12-19T18:43:32.744Z,9.00
2022-12-19T18:46:01.757Z,8.80
2022-12-19T18:48:30.176Z,8.73
2022-12-19T18:50:58.405Z,8.80
2022-12-19T18:53:34.461Z,10.10
2022-12-19T18:56:03.589Z,9.70
2022-12-19T18:58:31.129Z,9.30
2022-12-19T19:00:59.931Z,8.33
2022-12-19T19:03:30.520Z,9.00
2022-12-19T19:05:58.114Z,10.00
2022-12-19T19:08:26.274Z,9.90
2022-12-19T19:10:55.054Z,9.20
2022-12-19T19:13:23.341Z,9.60
2022-12-19T19:15:51.427Z,9.13
2022-12-19T19:18:21.436Z,9.03
2022-12-19T19:20:54.374Z,8.97
2022-12-19T19:23:28.092Z,8.90
2022-12-19T19:25:55.775Z,9.87
2022-12-19T19:28:23.221Z,8.40
2022-12-19T19:30:52.626Z,8.33
2022-12-19T19:33:22.377Z,9.47
2022-12-19T19:35:52.339Z,8.67
2022-12-19T19:38:21.101Z,8.20
2022-12-19T19:40:48.644Z,9.30
2022-12-19T19:43:16.106Z,8.80
2022-12-19T19:45:43.829Z,8.70
2022-12-19T19:48:11.330Z,8.50
2022-12-19T19:50:38.824Z,8.50
2022-12-19T19:53:07.749Z,8.33
2022-12-19T19:55:35.227Z,9.00
2022-12-19T19:58:02.691Z,8.30
2022-12-19T20:00:30.079Z,8.60
2022-12-19T20:02:57.633Z,9.07
2022-12-19T20:05:25.826Z,7.97
2022-12-19T20:07:53.249Z,8.40
2022-12-19T20:10:22.013Z,8.10
2022-12-19T20:12:49.426Z,7.80
2022-12-19T20:15:16.957Z,7.80
2022-12-19T20:17:44.403Z,7.77
2022-12-19T20:20:12.327Z,8.43
2022-12-19T20:22:39.756Z,8.40
2022-12-19T20:25:07.367Z,8.93
2022-12-19T20:27:36.172Z,7.83
2022-12-19T20:30:03.837Z,7.37
2022-12-19T20:32:31.509Z,7.23
2022-12-19T20:34:59.044Z,7.17
2022-12-19T20:37:26.725Z,7.70
2022-12-19T20:39:54.199Z,7.37
2022-12-19T20:42:21.813Z,6.40
2022-12-19T20:44:50.556Z,7.87
2022-12-19T20:47:18.064Z,7.87
2022-12-19T20:49:45.528Z,8.30
2022-12-19T20:52:13.002Z,8.60
2022-12-19T20:54:40.430Z,8.60
2022-12-19T20:57:07.891Z,8.60
2022-12-19T20:59:35.594Z,7.33
2022-12-19T21:02:04.457Z,7.43
2022-12-19T21:04:32.217Z,7.70
2022-12-19T21:06:59.822Z,7.33
2022-12-19T21:09:27.376Z,7.27
2022-12-19T21:11:54.829Z,7.47
2022-12-19T21:14:22.304Z,6.33
2022-12-19T21:16:49.690Z,7.27
2022-12-19T21:19:19.084Z,6.40
2022-12-19T21:21:46.753Z,7.10
2022-12-19T21:24:14.191Z,7.43
2022-12-19T21:26:41.558Z,7.70
2022-12-19T21:29:10.311Z,6.70
2022-12-19T21:31:37.888Z,7.43
2022-12-19T21:34:05.576Z,6.87
2022-12-19T21:36:34.382Z,7.50
2022-12-19T21:39:02.802Z,6.80
2022-12-19T21:41:30.617Z,7.70
2022-12-19T21:43:58.502Z,7.53
2022-12-19T21:46:28.655Z,7.60
2022-12-19T21:48:56.963Z,7.63
2022-12-19T21:51:25.829Z,10.80
2022-12-19T21:53:55.993Z,10.93
2022-12-19T21:56:25.231Z,9.93
2022-12-19T21:58:53.184Z,8.93
2022-12-19T22:01:21.028Z,7.80
2022-12-19T22:03:48.793Z,7.93
2022-12-19T22:06:21.081Z,7.27
2022-12-19T22:08:53.115Z,7.00
2022-12-19T22:11:25.094Z,6.47
2022-12-19T22:13:52.589Z,5.83
2022-12-19T22:16:20.266Z,6.67
2022-12-19T22:18:47.860Z,5.87
2022-12-19T22:21:16.078Z,7.30
2022-12-19T22:23:43.528Z,8.93
2022-12-19T22:26:12.969Z,8.30
2022-12-19T22:28:42.597Z,8.40
2022-12-19T22:31:17.413Z,7.17
2022-12-19T22:33:47.744Z,6.53
2022-12-19T22:36:15.941Z,5.73
2022-12-19T22:38:48.091Z,5.87
2022-12-19T22:41:16.358Z,6.80
2022-12-19T22:43:45.211Z,5.20
2022-12-19T22:46:13.441Z,5.97
2022-12-19T22:48:41.424Z,6.50
2022-12-19T22:51:09.153Z,5.20
2022-12-19T22:53:37.205Z,4.87
2022-12-19T22:56:06.432Z,4.43
2022-12-19T22:58:35.315Z,4.10
2022-12-19T23:01:04.720Z,4.30
2022-12-19T23:03:32.410Z,4.43
2022-12-19T23:06:01.883Z,4.00
2022-12-19T23:08:30.659Z,4.00
2022-12-19T23:10:58.069Z,4.00
2022-12-19T23:13:26.392Z,4.07
2022-12-19T23:15:53.881Z,3.90
2022-12-19T23:18:22.810Z,4.27
2022-12-19T23:20:50.270Z,4.10
2022-12-19T23:23:18.813Z,3.87
2022-12-19T23:25:46.260Z,3.93
2022-12-19T23:28:13.838Z,3.87
2022-12-19T23:30:41.324Z,4.00
2022-12-19T23:33:08.907Z,3.70
2022-12-19T23:35:37.825Z,3.70
2022-12-19T23:38:05.407Z,3.93
2022-12-19T23:40:32.827Z,3.57
2022-12-19T23:43:00.380Z,3.20
2022-12-19T23:45:28.116Z,3.40
2022-12-19T23:47:55.589Z,3.53
2022-12-19T23:50:23.071Z,3.20
2022-12-19T23:52:51.871Z,3.20
2022-12-19T23:55:19.480Z,3.30
2022-12-19T23:57:46.964Z,3.00
